Angier, North Carolina
Current Conditions -  °F | °C
As of 6:55 PM on Monday 22 Dec 2014 (Local Time) from KHRJ Reporting Station
Overcast Overcast  
Wind Chill: 37°   Ceiling: 500
Heat Index: 40°   Visibility: 7mi
Dew Point: 40°   Wind: 5mph
Humidity: 100%   Direction: 30°NNE
Pressure: 30.05"   Gusts: NA
Location:  35.51°N, 78.74°W
Report Text: KHRJ 222355Z AUTO 03004KT 7SM OVC005 05/05 A3005 RMK AO2 T00450045 10051 20045
Loading
Personal Weather Stations






























Interactive Weather Map New forecast layout! Learn more

10-Day Weather Forecast

Advertisements
Track Severe Weather on mobile